K1YT

Yagabond Aaf

Yagabond Aaf, Washington, USA
METAR K1YT 190058Z AUTO 15004KT 10SM CLR 03/M06 A3025 RMK AO2 SLPNO
Observed Flight Rules
Nov-19 @ 00:58 UTC (23 minutes ago) Visual Flight Rules
Wind Visibility Clouds
150° at 4 knots 10 miles
  • Clear skies
Temperatures Readings
Current 3°C / 37°F
Dewpoint -6°C / 21°F
Humidity 52%
Altimeter 30.25" Hg
Pressure 1024 hPa
Elevation 438
METAR K1YT 190058Z AUTO 15004KT 10SM CLR 03/M06 A3025 RMK AO2 SLPNO
Observed Flight Rules
Nov-19 @ 00:58 UTC
(23 minutes ago)
VFR
Wind Visibility
150° at 4 knots 10 miles
Clouds
  • Clear skies
Temperature Dewpoint
3°C / 37°F -6°C / 21°F
Humidity Altimeter Pressure
52% 30.25" Hg 1024 hPa